sensor_id;sensor_type;location;lat;lon;timestamp;temperature;humidity
70300;HTU21D;57704;51.112;5.878;2023-02-03T00:01:51;10.81;74.53
70300;HTU21D;57704;51.112;5.878;2023-02-03T00:04:17;10.80;74.60
70300;HTU21D;57704;51.112;5.878;2023-02-03T00:06:44;10.80;74.58
70300;HTU21D;57704;51.112;5.878;2023-02-03T00:09:17;10.77;74.60
70300;HTU21D;57704;51.112;5.878;2023-02-03T00:11:43;10.77;74.65
70300;HTU21D;57704;51.112;5.878;2023-02-03T00:14:09;10.75;74.74
70300;HTU21D;57704;51.112;5.878;2023-02-03T00:16:37;10.73;74.69
70300;HTU21D;57704;51.112;5.878;2023-02-03T00:19:05;10.75;74.77
70300;HTU21D;57704;51.112;5.878;2023-02-03T00:21:31;10.72;74.76
70300;HTU21D;57704;51.112;5.878;2023-02-03T00:23:58;10.72;74.79
70300;HTU21D;57704;51.112;5.878;2023-02-03T00:26:27;10.71;74.80
70300;HTU21D;57704;51.112;5.878;2023-02-03T00:28:54;10.73;74.80
70300;HTU21D;57704;51.112;5.878;2023-02-03T00:31:23;10.74;74.80
70300;HTU21D;57704;51.112;5.878;2023-02-03T00:33:56;10.78;74.70
70300;HTU21D;57704;51.112;5.878;2023-02-03T00:36:24;10.75;74.79
70300;HTU21D;57704;51.112;5.878;2023-02-03T00:38:51;10.75;74.68
70300;HTU21D;57704;51.112;5.878;2023-02-03T00:41:18;10.75;74.67
70300;HTU21D;57704;51.112;5.878;2023-02-03T00:43:45;10.75;74.73
70300;HTU21D;57704;51.112;5.878;2023-02-03T00:46:12;10.75;74.69
70300;HTU21D;57704;51.112;5.878;2023-02-03T00:48:39;10.77;74.74
70300;HTU21D;57704;51.112;5.878;2023-02-03T00:51:05;10.74;74.78
70300;HTU21D;57704;51.112;5.878;2023-02-03T00:53:34;10.74;74.66
70300;HTU21D;57704;51.112;5.878;2023-02-03T00:56:04;10.72;74.82
70300;HTU21D;57704;51.112;5.878;2023-02-03T00:58:38;10.73;74.83
70300;HTU21D;57704;51.112;5.878;2023-02-03T01:01:05;10.72;74.89
70300;HTU21D;57704;51.112;5.878;2023-02-03T01:03:32;10.74;74.86
70300;HTU21D;57704;51.112;5.878;2023-02-03T01:06:28;10.77;74.78
70300;HTU21D;57704;51.112;5.878;2023-02-03T01:08:54;10.78;74.74
70300;HTU21D;57704;51.112;5.878;2023-02-03T01:11:24;10.75;74.80
70300;HTU21D;57704;51.112;5.878;2023-02-03T01:13:55;10.79;74.68
70300;HTU21D;57704;51.112;5.878;2023-02-03T01:16:23;10.79;74.55
70300;HTU21D;57704;51.112;5.878;2023-02-03T01:18:50;10.77;74.71
70300;HTU21D;57704;51.112;5.878;2023-02-03T01:21:22;10.84;74.46
70300;HTU21D;57704;51.112;5.878;2023-02-03T01:23:53;10.81;74.59
70300;HTU21D;57704;51.112;5.878;2023-02-03T01:26:22;10.82;74.51
70300;HTU21D;57704;51.112;5.878;2023-02-03T01:28:55;10.84;74.43
70300;HTU21D;57704;51.112;5.878;2023-02-03T01:33:54;10.81;74.47
70300;HTU21D;57704;51.112;5.878;2023-02-03T01:36:24;10.81;74.51
70300;HTU21D;57704;51.112;5.878;2023-02-03T01:38:51;10.82;74.51
70300;HTU21D;57704;51.112;5.878;2023-02-03T01:41:22;10.80;74.51
70300;HTU21D;57704;51.112;5.878;2023-02-03T01:43:53;10.82;74.55
70300;HTU21D;57704;51.112;5.878;2023-02-03T01:46:38;10.81;74.57
70300;HTU21D;57704;51.112;5.878;2023-02-03T01:49:41;10.83;74.54
70300;HTU21D;57704;51.112;5.878;2023-02-03T01:52:10;10.83;74.49
70300;HTU21D;57704;51.112;5.878;2023-02-03T01:54:46;10.83;74.42
70300;HTU21D;57704;51.112;5.878;2023-02-03T01:57:23;10.87;74.35
70300;HTU21D;57704;51.112;5.878;2023-02-03T01:59:54;10.86;74.17
70300;HTU21D;57704;51.112;5.878;2023-02-03T02:02:23;10.83;74.38
70300;HTU21D;57704;51.112;5.878;2023-02-03T02:04:59;10.84;74.41
70300;HTU21D;57704;51.112;5.878;2023-02-03T02:07:28;10.81;74.43
70300;HTU21D;57704;51.112;5.878;2023-02-03T02:09:55;10.82;74.41
70300;HTU21D;57704;51.112;5.878;2023-02-03T02:12:25;10.83;74.38
70300;HTU21D;57704;51.112;5.878;2023-02-03T02:14:52;10.83;74.47
70300;HTU21D;57704;51.112;5.878;2023-02-03T02:17:32;10.83;74.31
70300;HTU21D;57704;51.112;5.878;2023-02-03T02:20:32;10.83;74.35
70300;HTU21D;57704;51.112;5.878;2023-02-03T02:43:07;10.86;73.83
70300;HTU21D;57704;51.112;5.878;2023-02-03T02:45:45;10.87;73.54
70300;HTU21D;57704;51.112;5.878;2023-02-03T02:51:03;10.85;73.92
70300;HTU21D;57704;51.112;5.878;2023-02-03T02:53:36;10.86;73.83
70300;HTU21D;57704;51.112;5.878;2023-02-03T02:56:06;10.85;73.81
70300;HTU21D;57704;51.112;5.878;2023-02-03T02:58:38;10.83;73.61
70300;HTU21D;57704;51.112;5.878;2023-02-03T03:01:08;10.84;73.80
70300;HTU21D;57704;51.112;5.878;2023-02-03T03:03:37;10.88;73.67
70300;HTU21D;57704;51.112;5.878;2023-02-03T03:06:23;10.92;73.62
70300;HTU21D;57704;51.112;5.878;2023-02-03T03:09:10;10.93;73.38
70300;HTU21D;57704;51.112;5.878;2023-02-03T03:12:19;10.92;73.41
70300;HTU21D;57704;51.112;5.878;2023-02-03T03:14:44;10.93;73.33
70300;HTU21D;57704;51.112;5.878;2023-02-03T03:17:18;10.90;73.42
70300;HTU21D;57704;51.112;5.878;2023-02-03T03:19:56;10.88;73.50
70300;HTU21D;57704;51.112;5.878;2023-02-03T03:22:34;10.88;73.44
70300;HTU21D;57704;51.112;5.878;2023-02-03T03:25:21;10.86;73.51
70300;HTU21D;57704;51.112;5.878;2023-02-03T03:27:58;10.87;73.50
70300;HTU21D;57704;51.112;5.878;2023-02-03T03:30:33;10.89;73.53
70300;HTU21D;57704;51.112;5.878;2023-02-03T03:33:06;10.88;73.35
70300;HTU21D;57704;51.112;5.878;2023-02-03T03:36:00;10.87;73.48
70300;HTU21D;57704;51.112;5.878;2023-02-03T03:38:38;10.87;73.45
70300;HTU21D;57704;51.112;5.878;2023-02-03T03:41:23;10.87;73.35
70300;HTU21D;57704;51.112;5.878;2023-02-03T03:43:55;10.86;73.43
70300;HTU21D;57704;51.112;5.878;2023-02-03T03:46:34;10.84;73.42
70300;HTU21D;57704;51.112;5.878;2023-02-03T03:49:04;10.85;73.44
70300;HTU21D;57704;51.112;5.878;2023-02-03T03:51:46;10.85;73.45
70300;HTU21D;57704;51.112;5.878;2023-02-03T03:54:18;10.85;73.45
70300;HTU21D;57704;51.112;5.878;2023-02-03T03:57:01;10.85;73.38
70300;HTU21D;57704;51.112;5.878;2023-02-03T03:59:33;10.86;73.39
70300;HTU21D;57704;51.112;5.878;2023-02-03T04:02:03;10.83;73.15
70300;HTU21D;57704;51.112;5.878;2023-02-03T04:04:32;10.87;73.32
70300;HTU21D;57704;51.112;5.878;2023-02-03T04:06:58;10.85;73.28
70300;HTU21D;57704;51.112;5.878;2023-02-03T04:09:24;10.85;73.34
70300;HTU21D;57704;51.112;5.878;2023-02-03T04:11:51;10.84;73.40
70300;HTU21D;57704;51.112;5.878;2023-02-03T04:14:29;10.85;73.38
70300;HTU21D;57704;51.112;5.878;2023-02-03T04:16:56;10.86;73.42
70300;HTU21D;57704;51.112;5.878;2023-02-03T04:19:23;10.87;73.31
70300;HTU21D;57704;51.112;5.878;2023-02-03T04:21:49;10.88;73.28
70300;HTU21D;57704;51.112;5.878;2023-02-03T04:24:15;10.92;73.21
70300;HTU21D;57704;51.112;5.878;2023-02-03T04:26:41;10.89;73.21
70300;HTU21D;57704;51.112;5.878;2023-02-03T04:29:07;10.87;73.15
70300;HTU21D;57704;51.112;5.878;2023-02-03T04:31:34;10.85;73.25
70300;HTU21D;57704;51.112;5.878;2023-02-03T04:34:00;10.85;73.31
70300;HTU21D;57704;51.112;5.878;2023-02-03T04:36:26;10.85;73.31
70300;HTU21D;57704;51.112;5.878;2023-02-03T04:38:52;10.86;73.22
70300;HTU21D;57704;51.112;5.878;2023-02-03T04:41:18;10.83;73.19
70300;HTU21D;57704;51.112;5.878;2023-02-03T04:43:44;10.85;73.25
70300;HTU21D;57704;51.112;5.878;2023-02-03T04:46:10;10.84;73.23
70300;HTU21D;57704;51.112;5.878;2023-02-03T04:48:36;10.87;73.06
70300;HTU21D;57704;51.112;5.878;2023-02-03T04:51:07;10.84;73.18
70300;HTU21D;57704;51.112;5.878;2023-02-03T04:53:34;10.86;72.87
70300;HTU21D;57704;51.112;5.878;2023-02-03T04:56:00;10.85;73.05
70300;HTU21D;57704;51.112;5.878;2023-02-03T04:58:26;10.87;72.94
70300;HTU21D;57704;51.112;5.878;2023-02-03T05:00:54;10.88;72.91
70300;HTU21D;57704;51.112;5.878;2023-02-03T05:03:20;10.89;72.66
70300;HTU21D;57704;51.112;5.878;2023-02-03T05:05:48;10.93;72.54
70300;HTU21D;57704;51.112;5.878;2023-02-03T05:08:15;10.89;72.38
70300;HTU21D;57704;51.112;5.878;2023-02-03T05:10:41;10.87;72.64
70300;HTU21D;57704;51.112;5.878;2023-02-03T05:13:07;10.87;72.42
70300;HTU21D;57704;51.112;5.878;2023-02-03T05:15:33;10.89;72.52
70300;HTU21D;57704;51.112;5.878;2023-02-03T05:18:00;10.92;72.43
70300;HTU21D;57704;51.112;5.878;2023-02-03T05:20:26;10.86;72.44
70300;HTU21D;57704;51.112;5.878;2023-02-03T05:22:52;10.88;72.50
70300;HTU21D;57704;51.112;5.878;2023-02-03T05:25:19;10.89;72.37
70300;HTU21D;57704;51.112;5.878;2023-02-03T05:27:45;10.86;72.36
70300;HTU21D;57704;51.112;5.878;2023-02-03T05:30:11;10.85;72.36
70300;HTU21D;57704;51.112;5.878;2023-02-03T05:32:37;10.85;72.45
70300;HTU21D;57704;51.112;5.878;2023-02-03T05:35:03;10.85;72.21
70300;HTU21D;57704;51.112;5.878;2023-02-03T05:37:29;10.87;72.20
70300;HTU21D;57704;51.112;5.878;2023-02-03T05:39:55;10.85;72.26
70300;HTU21D;57704;51.112;5.878;2023-02-03T05:42:48;10.85;72.31
70300;HTU21D;57704;51.112;5.878;2023-02-03T05:45:15;10.87;72.26
70300;HTU21D;57704;51.112;5.878;2023-02-03T05:47:41;10.88;72.23
70300;HTU21D;57704;51.112;5.878;2023-02-03T05:50:08;10.88;72.17
70300;HTU21D;57704;51.112;5.878;2023-02-03T05:52:34;10.89;72.10
70300;HTU21D;57704;51.112;5.878;2023-02-03T05:55:00;10.87;72.09
70300;HTU21D;57704;51.112;5.878;2023-02-03T05:57:27;10.87;72.13
70300;HTU21D;57704;51.112;5.878;2023-02-03T05:59:53;10.84;71.84
70300;HTU21D;57704;51.112;5.878;2023-02-03T06:02:20;10.85;72.11
70300;HTU21D;57704;51.112;5.878;2023-02-03T06:04:46;10.86;72.17
70300;HTU21D;57704;51.112;5.878;2023-02-03T06:07:13;10.87;72.10
70300;HTU21D;57704;51.112;5.878;2023-02-03T06:09:39;10.84;71.96
70300;HTU21D;57704;51.112;5.878;2023-02-03T06:12:06;10.86;72.10
70300;HTU21D;57704;51.112;5.878;2023-02-03T06:14:32;10.87;71.87
70300;HTU21D;57704;51.112;5.878;2023-02-03T06:16:59;10.88;72.01
70300;HTU21D;57704;51.112;5.878;2023-02-03T06:19:27;10.90;71.96
70300;HTU21D;57704;51.112;5.878;2023-02-03T06:21:55;10.90;71.90
70300;HTU21D;57704;51.112;5.878;2023-02-03T06:24:21;10.88;71.47
70300;HTU21D;57704;51.112;5.878;2023-02-03T06:26:47;10.88;71.91
70300;HTU21D;57704;51.112;5.878;2023-02-03T06:29:14;10.90;71.78
70300;HTU21D;57704;51.112;5.878;2023-02-03T06:31:40;10.94;71.45
70300;HTU21D;57704;51.112;5.878;2023-02-03T06:34:07;10.90;71.72
70300;HTU21D;57704;51.112;5.878;2023-02-03T06:36:36;10.94;71.53
70300;HTU21D;57704;51.112;5.878;2023-02-03T06:39:03;10.94;71.52
70300;HTU21D;57704;51.112;5.878;2023-02-03T06:41:29;10.90;71.46
70300;HTU21D;57704;51.112;5.878;2023-02-03T06:43:57;10.94;71.42
70300;HTU21D;57704;51.112;5.878;2023-02-03T06:46:24;10.94;71.38
70300;HTU21D;57704;51.112;5.878;2023-02-03T06:48:56;10.94;71.48
70300;HTU21D;57704;51.112;5.878;2023-02-03T06:51:24;10.88;71.41
70300;HTU21D;57704;51.112;5.878;2023-02-03T06:53:50;10.88;71.55
70300;HTU21D;57704;51.112;5.878;2023-02-03T06:56:17;10.94;71.32
70300;HTU21D;57704;51.112;5.878;2023-02-03T06:58:43;10.88;71.46
70300;HTU21D;57704;51.112;5.878;2023-02-03T07:01:10;10.87;71.42
70300;HTU21D;57704;51.112;5.878;2023-02-03T07:03:36;10.93;71.26
70300;HTU21D;57704;51.112;5.878;2023-02-03T07:06:02;10.92;71.37
70300;HTU21D;57704;51.112;5.878;2023-02-03T07:08:28;10.93;71.39
70300;HTU21D;57704;51.112;5.878;2023-02-03T07:10:55;10.97;71.23
70300;HTU21D;57704;51.112;5.878;2023-02-03T07:13:22;10.94;71.27
70300;HTU21D;57704;51.112;5.878;2023-02-03T07:15:49;10.96;71.29
70300;HTU21D;57704;51.112;5.878;2023-02-03T07:18:15;10.97;71.24
70300;HTU21D;57704;51.112;5.878;2023-02-03T07:20:42;10.99;71.16
70300;HTU21D;57704;51.112;5.878;2023-02-03T07:23:09;11.02;70.96
70300;HTU21D;57704;51.112;5.878;2023-02-03T07:25:35;10.97;71.08
70300;HTU21D;57704;51.112;5.878;2023-02-03T07:28:01;10.99;71.00
70300;HTU21D;57704;51.112;5.878;2023-02-03T07:30:28;11.00;70.68
70300;HTU21D;57704;51.112;5.878;2023-02-03T07:32:54;10.96;71.06
70300;HTU21D;57704;51.112;5.878;2023-02-03T07:35:20;11.01;70.87
70300;HTU21D;57704;51.112;5.878;2023-02-03T07:37:46;11.00;70.79
70300;HTU21D;57704;51.112;5.878;2023-02-03T07:40:13;11.00;70.97
70300;HTU21D;57704;51.112;5.878;2023-02-03T07:42:45;11.04;70.84
70300;HTU21D;57704;51.112;5.878;2023-02-03T07:45:13;11.04;70.76
70300;HTU21D;57704;51.112;5.878;2023-02-03T07:47:41;11.08;70.52
70300;HTU21D;57704;51.112;5.878;2023-02-03T07:50:08;11.05;70.55
70300;HTU21D;57704;51.112;5.878;2023-02-03T07:52:34;11.04;70.61
70300;HTU21D;57704;51.112;5.878;2023-02-03T07:55:01;11.09;70.44
70300;HTU21D;57704;51.112;5.878;2023-02-03T07:57:27;11.02;70.76
70300;HTU21D;57704;51.112;5.878;2023-02-03T07:59:54;11.04;70.69
70300;HTU21D;57704;51.112;5.878;2023-02-03T08:02:20;11.08;70.65
70300;HTU21D;57704;51.112;5.878;2023-02-03T08:04:46;11.09;70.60
70300;HTU21D;57704;51.112;5.878;2023-02-03T08:07:12;11.10;70.55
70300;HTU21D;57704;51.112;5.878;2023-02-03T08:09:38;11.13;70.45
70300;HTU21D;57704;51.112;5.878;2023-02-03T08:12:05;11.14;70.49
70300;HTU21D;57704;51.112;5.878;2023-02-03T08:14:32;11.14;70.48
70300;HTU21D;57704;51.112;5.878;2023-02-03T08:16:58;11.16;70.37
70300;HTU21D;57704;51.112;5.878;2023-02-03T08:19:24;11.16;70.39
70300;HTU21D;57704;51.112;5.878;2023-02-03T08:21:50;11.17;70.32
70300;HTU21D;57704;51.112;5.878;2023-02-03T08:24:16;11.18;70.18
70300;HTU21D;57704;51.112;5.878;2023-02-03T08:26:42;11.22;70.10
70300;HTU21D;57704;51.112;5.878;2023-02-03T08:29:08;11.18;70.39
70300;HTU21D;57704;51.112;5.878;2023-02-03T08:31:37;11.23;70.42
70300;HTU21D;57704;51.112;5.878;2023-02-03T08:34:03;11.31;69.90
70300;HTU21D;57704;51.112;5.878;2023-02-03T08:36:30;11.30;69.97
70300;HTU21D;57704;51.112;5.878;2023-02-03T08:38:56;11.30;69.88
70300;HTU21D;57704;51.112;5.878;2023-02-03T08:41:23;11.31;70.01
70300;HTU21D;57704;51.112;5.878;2023-02-03T08:43:48;11.32;69.90
70300;HTU21D;57704;51.112;5.878;2023-02-03T08:46:15;11.28;70.03
70300;HTU21D;57704;51.112;5.878;2023-02-03T08:48:41;11.30;70.11
70300;HTU21D;57704;51.112;5.878;2023-02-03T08:51:13;11.30;69.79
70300;HTU21D;57704;51.112;5.878;2023-02-03T08:53:40;11.31;70.00
70300;HTU21D;57704;51.112;5.878;2023-02-03T08:56:09;11.30;70.09
70300;HTU21D;57704;51.112;5.878;2023-02-03T08:58:36;11.34;70.03
70300;HTU21D;57704;51.112;5.878;2023-02-03T09:01:08;11.38;69.92
70300;HTU21D;57704;51.112;5.878;2023-02-03T09:03:35;11.38;70.05
70300;HTU21D;57704;51.112;5.878;2023-02-03T09:06:02;11.40;69.97
70300;HTU21D;57704;51.112;5.878;2023-02-03T09:08:29;11.43;69.98
70300;HTU21D;57704;51.112;5.878;2023-02-03T09:10:55;11.43;69.92
70300;HTU21D;57704;51.112;5.878;2023-02-03T09:13:22;11.47;69.72
70300;HTU21D;57704;51.112;5.878;2023-02-03T09:15:48;11.44;69.93
70300;HTU21D;57704;51.112;5.878;2023-02-03T09:18:15;11.44;70.02
70300;HTU21D;57704;51.112;5.878;2023-02-03T09:20:41;11.46;70.18
70300;HTU21D;57704;51.112;5.878;2023-02-03T09:23:08;11.41;70.35
70300;HTU21D;57704;51.112;5.878;2023-02-03T09:25:34;11.40;70.64
70300;HTU21D;57704;51.112;5.878;2023-02-03T09:28:01;11.41;70.64
70300;HTU21D;57704;51.112;5.878;2023-02-03T09:30:27;11.43;70.71
70300;HTU21D;57704;51.112;5.878;2023-02-03T09:32:54;11.42;70.81
70300;HTU21D;57704;51.112;5.878;2023-02-03T09:35:24;11.40;71.11
70300;HTU21D;57704;51.112;5.878;2023-02-03T09:37:51;11.38;71.36
70300;HTU21D;57704;51.112;5.878;2023-02-03T09:40:23;11.36;71.55
70300;HTU21D;57704;51.112;5.878;2023-02-03T09:43:01;11.30;71.92
70300;HTU21D;57704;51.112;5.878;2023-02-03T09:45:31;11.28;72.22
70300;HTU21D;57704;51.112;5.878;2023-02-03T09:48:17;11.19;72.80
70300;HTU21D;57704;51.112;5.878;2023-02-03T09:50:47;11.16;73.25
70300;HTU21D;57704;51.112;5.878;2023-02-03T09:53:30;11.14;73.38
70300;HTU21D;57704;51.112;5.878;2023-02-03T09:55:58;11.10;73.74
70300;HTU21D;57704;51.112;5.878;2023-02-03T09:58:33;11.10;74.02
70300;HTU21D;57704;51.112;5.878;2023-02-03T10:01:03;11.12;74.15
70300;HTU21D;57704;51.112;5.878;2023-02-03T10:03:51;11.09;74.57
70300;HTU21D;57704;51.112;5.878;2023-02-03T10:06:41;11.02;74.85
70300;HTU21D;57704;51.112;5.878;2023-02-03T10:12:12;11.07;75.42
70300;HTU21D;57704;51.112;5.878;2023-02-03T10:17:49;10.95;76.06
70300;HTU21D;57704;51.112;5.878;2023-02-03T10:20:45;10.93;76.48
70300;HTU21D;57704;51.112;5.878;2023-02-03T10:25:50;10.96;76.92
70300;HTU21D;57704;51.112;5.878;2023-02-03T10:28:23;10.97;76.84
70300;HTU21D;57704;51.112;5.878;2023-02-03T10:30:58;11.01;76.88
70300;HTU21D;57704;51.112;5.878;2023-02-03T10:33:28;11.10;76.57
70300;HTU21D;57704;51.112;5.878;2023-02-03T10:38:32;11.05;76.54
70300;HTU21D;57704;51.112;5.878;2023-02-03T10:41:02;11.09;76.50
70300;HTU21D;57704;51.112;5.878;2023-02-03T10:43:31;11.12;76.61
70300;HTU21D;57704;51.112;5.878;2023-02-03T10:46:17;11.13;76.44
70300;HTU21D;57704;51.112;5.878;2023-02-03T10:48:44;11.25;76.18
70300;HTU21D;57704;51.112;5.878;2023-02-03T10:51:26;11.33;75.93
70300;HTU21D;57704;51.112;5.878;2023-02-03T10:53:57;11.43;75.60
70300;HTU21D;57704;51.112;5.878;2023-02-03T10:56:35;11.48;75.18
70300;HTU21D;57704;51.112;5.878;2023-02-03T10:59:03;11.49;75.01
70300;HTU21D;57704;51.112;5.878;2023-02-03T11:01:41;11.52;74.92
70300;HTU21D;57704;51.112;5.878;2023-02-03T11:04:31;11.55;74.74
70300;HTU21D;57704;51.112;5.878;2023-02-03T11:07:04;11.54;74.74
70300;HTU21D;57704;51.112;5.878;2023-02-03T11:09:40;11.59;74.57
70300;HTU21D;57704;51.112;5.878;2023-02-03T11:12:20;11.66;74.30
70300;HTU21D;57704;51.112;5.878;2023-02-03T11:14:49;11.70;74.07
70300;HTU21D;57704;51.112;5.878;2023-02-03T11:17:20;11.74;73.86
70300;HTU21D;57704;51.112;5.878;2023-02-03T11:19:50;11.83;73.17
70300;HTU21D;57704;51.112;5.878;2023-02-03T11:22:34;11.82;73.22
70300;HTU21D;57704;51.112;5.878;2023-02-03T11:25:04;11.84;73.11
70300;HTU21D;57704;51.112;5.878;2023-02-03T11:27:41;11.88;73.11
70300;HTU21D;57704;51.112;5.878;2023-02-03T11:30:26;11.94;72.94
70300;HTU21D;57704;51.112;5.878;2023-02-03T11:32:55;11.99;72.66
70300;HTU21D;57704;51.112;5.878;2023-02-03T11:35:25;12.03;72.41
70300;HTU21D;57704;51.112;5.878;2023-02-03T11:37:57;12.04;72.24
70300;HTU21D;57704;51.112;5.878;2023-02-03T11:40:32;12.02;72.09
70300;HTU21D;57704;51.112;5.878;2023-02-03T11:43:14;12.04;72.20
70300;HTU21D;57704;51.112;5.878;2023-02-03T11:45:44;12.05;72.24
70300;HTU21D;57704;51.112;5.878;2023-02-03T11:53:31;12.17;71.80
70300;HTU21D;57704;51.112;5.878;2023-02-03T11:56:16;12.13;71.89
70300;HTU21D;57704;51.112;5.878;2023-02-03T12:06:56;12.21;71.51
70300;HTU21D;57704;51.112;5.878;2023-02-03T12:09:38;12.19;71.48
70300;HTU21D;57704;51.112;5.878;2023-02-03T12:17:52;12.10;71.70
70300;HTU21D;57704;51.112;5.878;2023-02-03T12:34:14;12.19;71.77
70300;HTU21D;57704;51.112;5.878;2023-02-03T12:42:32;12.20;71.61
70300;HTU21D;57704;51.112;5.878;2023-02-03T12:50:34;12.20;71.67
70300;HTU21D;57704;51.112;5.878;2023-02-03T12:55:55;12.19;71.82
70300;HTU21D;57704;51.112;5.878;2023-02-03T13:01:27;12.28;71.81
70300;HTU21D;57704;51.112;5.878;2023-02-03T13:06:52;12.30;71.58
70300;HTU21D;57704;51.112;5.878;2023-02-03T13:19:54;12.33;71.64
70300;HTU21D;57704;51.112;5.878;2023-02-03T13:22:22;12.31;71.57
70300;HTU21D;57704;51.112;5.878;2023-02-03T13:43:45;12.18;71.90
70300;HTU21D;57704;51.112;5.878;2023-02-03T13:46:33;12.18;71.97
70300;HTU21D;57704;51.112;5.878;2023-02-03T13:49:04;12.17;72.11
70300;HTU21D;57704;51.112;5.878;2023-02-03T13:51:42;12.17;72.00
70300;HTU21D;57704;51.112;5.878;2023-02-03T13:54:20;12.18;72.08
70300;HTU21D;57704;51.112;5.878;2023-02-03T13:56:57;12.20;71.96
70300;HTU21D;57704;51.112;5.878;2023-02-03T14:10:22;12.22;71.84
70300;HTU21D;57704;51.112;5.878;2023-02-03T14:25:32;12.44;71.78
70300;HTU21D;57704;51.112;5.878;2023-02-03T14:28:08;12.49;71.66
70300;HTU21D;57704;51.112;5.878;2023-02-03T14:33:50;12.55;71.18
70300;HTU21D;57704;51.112;5.878;2023-02-03T14:36:41;12.50;71.32
70300;HTU21D;57704;51.112;5.878;2023-02-03T14:58:40;12.62;71.09
70300;HTU21D;57704;51.112;5.878;2023-02-03T15:11:57;12.57;71.17
70300;HTU21D;57704;51.112;5.878;2023-02-03T15:14:28;12.61;71.13
70300;HTU21D;57704;51.112;5.878;2023-02-03T15:17:09;12.62;70.86
70300;HTU21D;57704;51.112;5.878;2023-02-03T15:19:41;12.58;70.98
70300;HTU21D;57704;51.112;5.878;2023-02-03T15:22:28;12.57;70.88
70300;HTU21D;57704;51.112;5.878;2023-02-03T15:25:01;12.48;71.21
70300;HTU21D;57704;51.112;5.878;2023-02-03T15:27:31;12.50;71.26
70300;HTU21D;57704;51.112;5.878;2023-02-03T15:29:58;12.51;71.19
70300;HTU21D;57704;51.112;5.878;2023-02-03T15:32:46;12.48;71.30
70300;HTU21D;57704;51.112;5.878;2023-02-03T15:35:18;12.50;71.27
70300;HTU21D;57704;51.112;5.878;2023-02-03T15:37:52;12.48;71.29
70300;HTU21D;57704;51.112;5.878;2023-02-03T15:40:22;12.49;71.21
70300;HTU21D;57704;51.112;5.878;2023-02-03T15:45:41;12.36;71.52
70300;HTU21D;57704;51.112;5.878;2023-02-03T15:48:23;12.34;71.60
70300;HTU21D;57704;51.112;5.878;2023-02-03T15:51:13;12.31;71.67
70300;HTU21D;57704;51.112;5.878;2023-02-03T16:01:51;12.11;72.49
70300;HTU21D;57704;51.112;5.878;2023-02-03T16:04:18;12.12;72.63
70300;HTU21D;57704;51.112;5.878;2023-02-03T16:06:49;12.08;72.59
70300;HTU21D;57704;51.112;5.878;2023-02-03T16:09:40;12.11;72.48
70300;HTU21D;57704;51.112;5.878;2023-02-03T16:14:53;12.06;72.58
70300;HTU21D;57704;51.112;5.878;2023-02-03T16:17:35;12.08;72.60
70300;HTU21D;57704;51.112;5.878;2023-02-03T16:22:44;12.10;72.48
70300;HTU21D;57704;51.112;5.878;2023-02-03T16:25:25;12.07;72.45
70300;HTU21D;57704;51.112;5.878;2023-02-03T16:31:29;12.10;72.38
70300;HTU21D;57704;51.112;5.878;2023-02-03T16:34:15;12.05;72.45
70300;HTU21D;57704;51.112;5.878;2023-02-03T16:37:09;12.04;72.64
70300;HTU21D;57704;51.112;5.878;2023-02-03T16:39:54;12.05;72.62
70300;HTU21D;57704;51.112;5.878;2023-02-03T16:42:39;12.04;72.53
70300;HTU21D;57704;51.112;5.878;2023-02-03T16:45:24;12.03;72.53
70300;HTU21D;57704;51.112;5.878;2023-02-03T16:48:11;12.05;72.48
70300;HTU21D;57704;51.112;5.878;2023-02-03T16:51:02;12.03;72.54
70300;HTU21D;57704;51.112;5.878;2023-02-03T16:53:31;12.03;72.47
70300;HTU21D;57704;51.112;5.878;2023-02-03T16:56:01;12.04;72.41
70300;HTU21D;57704;51.112;5.878;2023-02-03T16:58:31;11.98;72.56
70300;HTU21D;57704;51.112;5.878;2023-02-03T17:00:59;11.98;72.63
70300;HTU21D;57704;51.112;5.878;2023-02-03T17:03:27;11.96;72.65
70300;HTU21D;57704;51.112;5.878;2023-02-03T17:05:55;11.98;72.62
70300;HTU21D;57704;51.112;5.878;2023-02-03T17:08:23;11.97;72.73
70300;HTU21D;57704;51.112;5.878;2023-02-03T17:10:50;11.96;72.81
70300;HTU21D;57704;51.112;5.878;2023-02-03T17:13:18;11.97;72.79
70300;HTU21D;57704;51.112;5.878;2023-02-03T17:15:48;11.96;72.87
70300;HTU21D;57704;51.112;5.878;2023-02-03T17:18:15;11.90;73.04
70300;HTU21D;57704;51.112;5.878;2023-02-03T17:20:43;11.89;73.17
70300;HTU21D;57704;51.112;5.878;2023-02-03T17:23:11;11.91;73.24
70300;HTU21D;57704;51.112;5.878;2023-02-03T17:25:38;11.86;73.35
70300;HTU21D;57704;51.112;5.878;2023-02-03T17:28:07;11.87;73.37
70300;HTU21D;57704;51.112;5.878;2023-02-03T17:30:34;11.85;73.38
70300;HTU21D;57704;51.112;5.878;2023-02-03T17:33:01;11.83;73.51
70300;HTU21D;57704;51.112;5.878;2023-02-03T17:35:28;11.81;73.58
70300;HTU21D;57704;51.112;5.878;2023-02-03T17:37:54;11.79;73.67
70300;HTU21D;57704;51.112;5.878;2023-02-03T17:40:20;11.79;73.64
70300;HTU21D;57704;51.112;5.878;2023-02-03T17:42:46;11.78;73.73
70300;HTU21D;57704;51.112;5.878;2023-02-03T17:45:12;11.75;73.79
70300;HTU21D;57704;51.112;5.878;2023-02-03T17:47:38;11.74;73.79
70300;HTU21D;57704;51.112;5.878;2023-02-03T17:50:04;11.76;73.80
70300;HTU21D;57704;51.112;5.878;2023-02-03T17:52:31;11.77;73.76
70300;HTU21D;57704;51.112;5.878;2023-02-03T17:54:57;11.75;73.71
70300;HTU21D;57704;51.112;5.878;2023-02-03T17:57:23;11.73;73.90
70300;HTU21D;57704;51.112;5.878;2023-02-03T17:59:49;11.75;73.88
70300;HTU21D;57704;51.112;5.878;2023-02-03T18:02:21;11.78;73.83
70300;HTU21D;57704;51.112;5.878;2023-02-03T18:04:53;11.78;73.78
70300;HTU21D;57704;51.112;5.878;2023-02-03T18:07:27;11.76;73.82
70300;HTU21D;57704;51.112;5.878;2023-02-03T18:09:53;11.73;73.92
70300;HTU21D;57704;51.112;5.878;2023-02-03T18:12:19;11.76;73.93
70300;HTU21D;57704;51.112;5.878;2023-02-03T18:14:46;11.75;74.06
70300;HTU21D;57704;51.112;5.878;2023-02-03T18:17:12;11.74;74.07
70300;HTU21D;57704;51.112;5.878;2023-02-03T18:19:38;11.77;74.09
70300;HTU21D;57704;51.112;5.878;2023-02-03T18:22:04;11.79;74.08
70300;HTU21D;57704;51.112;5.878;2023-02-03T18:24:31;11.79;74.03
70300;HTU21D;57704;51.112;5.878;2023-02-03T18:26:57;11.77;74.17
70300;HTU21D;57704;51.112;5.878;2023-02-03T18:29:26;11.76;74.23
70300;HTU21D;57704;51.112;5.878;2023-02-03T18:31:52;11.76;74.18
70300;HTU21D;57704;51.112;5.878;2023-02-03T18:34:20;11.73;74.35
70300;HTU21D;57704;51.112;5.878;2023-02-03T18:36:51;11.74;74.30
70300;HTU21D;57704;51.112;5.878;2023-02-03T18:39:18;11.70;74.50
70300;HTU21D;57704;51.112;5.878;2023-02-03T18:41:44;11.73;74.48
70300;HTU21D;57704;51.112;5.878;2023-02-03T18:44:10;11.70;74.60
70300;HTU21D;57704;51.112;5.878;2023-02-03T18:46:36;11.71;74.65
70300;HTU21D;57704;51.112;5.878;2023-02-03T18:49:02;11.70;74.90
70300;HTU21D;57704;51.112;5.878;2023-02-03T18:51:29;11.63;74.86
70300;HTU21D;57704;51.112;5.878;2023-02-03T18:53:56;11.66;75.02